createdAt,value
2018-07-20T00:00:56.926Z,95481.9
2018-07-20T00:01:59.099Z,95479.1
2018-07-20T00:03:01.262Z,95477.4
2018-07-20T00:04:03.426Z,95473
2018-07-20T00:05:05.888Z,95470.2
2018-07-20T00:06:08.032Z,95466.6
2018-07-20T00:07:10.493Z,95464.2
2018-07-20T00:08:12.856Z,95469.8
2018-07-20T00:09:15.079Z,95466.5
2018-07-20T00:10:17.528Z,95466.8
2018-07-20T00:11:19.710Z,95466.9
2018-07-20T00:12:21.631Z,95464.1
2018-07-20T00:13:23.811Z,95465.2
2018-07-20T00:14:25.965Z,95463.1
2018-07-20T00:15:28.147Z,95461.9
2018-07-20T00:16:30.592Z,95464.5
2018-07-20T00:17:32.767Z,95463.5
2018-07-20T00:18:34.906Z,95461.8
2018-07-20T00:19:37.076Z,95462.8
2018-07-20T00:20:39.526Z,95465.3
2018-07-20T00:21:41.706Z,95463.4
2018-07-20T00:22:43.891Z,95459.2
2018-07-20T00:23:46.057Z,95457.7
2018-07-20T00:24:48.524Z,95460.2
2018-07-20T00:25:50.975Z,95454.5
2018-07-20T00:26:52.875Z,95458.7
2018-07-20T00:27:55.035Z,95450.1
2018-07-20T00:28:57.203Z,95450.6
2018-07-20T00:29:59.406Z,95448.2
2018-07-20T00:31:00.778Z,95448.6
2018-07-20T00:32:03.236Z,95449.7
2018-07-20T00:33:05.105Z,95450.2
2018-07-20T00:34:07.287Z,95449.3
2018-07-20T00:35:09.185Z,95451.6
2018-07-20T00:36:11.375Z,95449.6
2018-07-20T00:37:13.524Z,95448.7
2018-07-20T00:38:15.967Z,95454
2018-07-20T00:39:18.419Z,95451.6
2018-07-20T00:40:20.899Z,95449.9
2018-07-20T00:41:23.071Z,95452
2018-07-20T00:42:24.704Z,95447.3
2018-07-20T00:43:26.922Z,95448.3
2018-07-20T00:44:29.370Z,95449.7
2018-07-20T00:45:31.288Z,95447.1
2018-07-20T00:46:33.471Z,95441.8
2018-07-20T00:47:35.917Z,95439.3
2018-07-20T00:48:38.091Z,95443.9
2018-07-20T00:49:40.535Z,95446.3
2018-07-20T00:50:42.976Z,95441.8
2018-07-20T00:51:45.143Z,95440.1
2018-07-20T00:52:47.589Z,95438.3
2018-07-20T00:53:49.491Z,95442.2
2018-07-20T00:54:51.664Z,95439.4
2018-07-20T00:55:53.836Z,95438.8
2018-07-20T00:56:56.279Z,95440
2018-07-20T00:57:58.727Z,95438.3
2018-07-20T00:59:00.889Z,95434.9
2018-07-20T01:00:03.338Z,95439.8
2018-07-20T01:01:05.523Z,95440.7
2018-07-20T01:02:07.970Z,95438.6
2018-07-20T01:03:10.420Z,95434.6
2018-07-20T01:04:12.867Z,95434.8
2018-07-20T01:05:14.775Z,95438.6
2018-07-20T01:06:16.936Z,95432.7
2018-07-20T01:07:19.384Z,95435.2
2018-07-20T01:08:21.526Z,95431.5
2018-07-20T01:09:23.672Z,95433.3
2018-07-20T01:10:26.107Z,95435.8
2018-07-20T01:11:28.283Z,95435.8
2018-07-20T01:12:29.939Z,95429.4
2018-07-20T01:13:32.387Z,95430.2
2018-07-20T01:14:34.037Z,95431.9
2018-07-20T01:15:36.210Z,95432.2
2018-07-20T01:16:38.107Z,95436.7
2018-07-20T01:17:40.283Z,95435.6
2018-07-20T01:18:42.737Z,95432.3
2018-07-20T01:19:44.653Z,95434.2
2018-07-20T01:20:47.097Z,95435.1
2018-07-20T01:21:49.283Z,95433.5
2018-07-20T01:22:51.724Z,95430.6
2018-07-20T01:23:53.916Z,95431.5
2018-07-20T01:24:56.074Z,95431.8
2018-07-20T01:25:57.676Z,95428.8
2018-07-20T01:26:59.596Z,95429.4
2018-07-20T01:28:01.760Z,95426.9
2018-07-20T01:29:04.202Z,95431.1
2018-07-20T01:30:06.685Z,95432.9
2018-07-20T01:31:08.635Z,95430.1
2018-07-20T01:32:10.787Z,95429.9
2018-07-20T01:33:12.957Z,95428.6
2018-07-20T01:34:14.873Z,95431.5
2018-07-20T01:35:17.320Z,95426.8
2018-07-20T01:36:19.502Z,95430.8
2018-07-20T01:37:21.950Z,95431.4
2018-07-20T01:38:24.386Z,95426.8
2018-07-20T01:39:26.565Z,95427
2018-07-20T01:40:28.171Z,95428.3
2018-07-20T01:41:30.609Z,95426.1
2018-07-20T01:42:33.048Z,95428.8
2018-07-20T01:43:35.217Z,95431.5
2018-07-20T01:44:36.579Z,95422.4
2018-07-20T01:45:38.753Z,95428.9
2018-07-20T01:46:41.206Z,95426.8
2018-07-20T01:47:43.381Z,95427.1
2018-07-20T01:48:45.825Z,95430.3
2018-07-20T01:49:47.718Z,95428.8
2018-07-20T01:50:50.159Z,95427.8
2018-07-20T01:51:52.069Z,95431.5
2018-07-20T01:52:54.513Z,95425.1
2018-07-20T01:53:56.952Z,95424.3
2018-07-20T01:54:59.129Z,95421.7
2018-07-20T01:56:01.004Z,95425.9
2018-07-20T01:57:03.142Z,95426.4
2018-07-20T01:58:05.585Z,95425.3
2018-07-20T01:59:08.033Z,95422.6
2018-07-20T02:00:10.208Z,95421.5
2018-07-20T02:01:12.656Z,95424
2018-07-20T02:02:14.575Z,95422.3
2018-07-20T02:03:16.471Z,95424.5
2018-07-20T02:04:18.651Z,95420.8
2018-07-20T02:05:20.800Z,95421.3
2018-07-20T02:06:23.250Z,95416
2018-07-20T02:07:25.146Z,95419.4
2018-07-20T02:08:27.604Z,95415.3
2018-07-20T02:09:29.504Z,95415.5
2018-07-20T02:10:31.949Z,95412.3
2018-07-20T02:11:34.095Z,95410.6
2018-07-20T02:12:36.280Z,95412.4
2018-07-20T02:13:38.732Z,95409.5
2018-07-20T02:14:40.653Z,95408.3
2018-07-20T02:15:42.814Z,95404.2
2018-07-20T02:16:44.457Z,95404.7
2018-07-20T02:17:46.340Z,95404.2
2018-07-20T02:18:48.512Z,95406.2
2018-07-20T02:19:50.959Z,95404.1
2018-07-20T02:20:53.414Z,95403.7
2018-07-20T02:21:55.602Z,95403.9
2018-07-20T02:22:57.791Z,95402.6
2018-07-20T02:23:59.944Z,95403.5
2018-07-20T02:25:02.385Z,95401.8
2018-07-20T02:26:04.570Z,95398.3
2018-07-20T02:27:06.716Z,95396.6
2018-07-20T02:28:08.904Z,95397
2018-07-20T02:29:11.082Z,95395.3
2018-07-20T02:30:13.528Z,95397.6
2018-07-20T02:31:15.971Z,95398.2
2018-07-20T02:32:17.890Z,95397.8
2018-07-20T02:33:20.326Z,95402.6
2018-07-20T02:34:22.203Z,95398.6
2018-07-20T02:35:24.406Z,95399.7
2018-07-20T02:36:26.899Z,95399.6
2018-07-20T02:37:29.193Z,95398.3
2018-07-20T02:38:31.349Z,95403.7
2018-07-20T02:39:33.798Z,95402
2018-07-20T02:40:36.246Z,95396.9
2018-07-20T02:41:38.437Z,95401.3
2018-07-20T02:42:40.876Z,95399.3
2018-07-20T02:43:43.347Z,95397
2018-07-20T02:44:45.788Z,95397.2
2018-07-20T02:45:47.431Z,95396.1
2018-07-20T02:46:49.878Z,95394.5
2018-07-20T02:47:52.016Z,95397.7
2018-07-20T02:48:53.905Z,95395.3
2018-07-20T02:49:55.799Z,95395.3
2018-07-20T02:50:57.438Z,95397.6
2018-07-20T02:51:59.955Z,95397.4
2018-07-20T02:53:01.852Z,95396.5
2018-07-20T02:54:04.304Z,95392.2
2018-07-20T02:55:06.481Z,95396.1
2018-07-20T02:56:08.650Z,95394.9
2018-07-20T02:57:11.110Z,95394.3
2018-07-20T02:58:13.562Z,95392.5
2018-07-20T02:59:15.453Z,95391
2018-07-20T03:00:17.633Z,95391
2018-07-20T03:01:20.076Z,95389.7
2018-07-20T03:02:22.526Z,95387.7
2018-07-20T03:03:24.973Z,95388.7
2018-07-20T03:04:26.880Z,95388.8
2018-07-20T03:05:29.315Z,95389
2018-07-20T03:06:31.489Z,95388.3
2018-07-20T03:07:33.667Z,95384
2018-07-20T03:08:36.107Z,95389
2018-07-20T03:09:38.550Z,95391.6
2018-07-20T03:10:41.004Z,95394.9
2018-07-20T03:11:43.448Z,95397.7
2018-07-20T03:12:45.338Z,95392
2018-07-20T03:13:47.239Z,95391.2
2018-07-20T03:14:49.409Z,95393
2018-07-20T03:15:51.865Z,95391.5
2018-07-20T03:16:54.033Z,95391.3
2018-07-20T03:17:56.492Z,95393.4
2018-07-20T03:18:58.651Z,95394.9
2018-07-20T03:20:01.099Z,95393.5
2018-07-20T03:21:03.631Z,95388.9
2018-07-20T03:22:05.685Z,95389.4
2018-07-20T03:23:07.876Z,95389.8
2018-07-20T03:24:10.331Z,95390.3
2018-07-20T03:25:12.499Z,95392.4
2018-07-20T03:26:14.417Z,95389.3
2018-07-20T03:27:16.598Z,95389.5
2018-07-20T03:28:18.467Z,95388.3
2018-07-20T03:29:20.913Z,95390.4
2018-07-20T03:30:23.077Z,95390.5
2018-07-20T03:31:24.969Z,95388
2018-07-20T03:32:27.421Z,95390.2
2018-07-20T03:33:29.873Z,95390.3
2018-07-20T03:34:32.059Z,95392
2018-07-20T03:35:34.216Z,95387.8
2018-07-20T03:36:36.094Z,95392.8
2018-07-20T03:37:37.986Z,95385
2018-07-20T03:38:40.159Z,95392.6
2018-07-20T03:39:42.336Z,95391.8
2018-07-20T03:40:44.784Z,95390.3
2018-07-20T03:41:47.226Z,95391
2018-07-20T03:42:49.396Z,95391
2018-07-20T03:43:51.313Z,95390.2
2018-07-20T03:44:53.497Z,95390
2018-07-20T03:45:55.938Z,95390.3
2018-07-20T03:46:58.380Z,95394.8
2018-07-20T03:48:00.564Z,95393
2018-07-20T03:49:03.195Z,95392.3
2018-07-20T03:50:05.809Z,95389.7
2018-07-20T03:51:07.973Z,95387.6
2018-07-20T03:52:10.010Z,95393.5
2018-07-20T03:53:12.175Z,95387.9
2018-07-20T03:54:14.621Z,95388.1
2018-07-20T03:55:17.082Z,95384.7
2018-07-20T03:56:19.254Z,95385.7
2018-07-20T03:57:21.459Z,95384.3
2018-07-20T03:58:23.902Z,95387.5
2018-07-20T03:59:26.352Z,95386.3
2018-07-20T04:00:28.255Z,95387.6
2018-07-20T04:01:30.139Z,95389
2018-07-20T04:02:32.953Z,95386.4
2018-07-20T04:03:35.117Z,95381.6
2018-07-20T04:04:37.571Z,95385.9
2018-07-20T04:05:40.027Z,95386.9
2018-07-20T04:06:41.673Z,95380.9
2018-07-20T04:07:44.128Z,95381.4
2018-07-20T04:08:46.113Z,95384.5
2018-07-20T04:09:48.025Z,95382.6
2018-07-20T04:10:50.471Z,95380.5
2018-07-20T04:11:52.918Z,95383
2018-07-20T04:12:55.377Z,95384.3
2018-07-20T04:13:57.283Z,95381.7
2018-07-20T04:14:59.477Z,95380.5
2018-07-20T04:16:01.646Z,95379.6
2018-07-20T04:17:04.090Z,95382.4
2018-07-20T04:18:06.267Z,95383.8
2018-07-20T04:19:08.728Z,95383
2018-07-20T04:20:10.622Z,95382.1
2018-07-20T04:21:12.780Z,95384.7
2018-07-20T04:22:14.662Z,95381.2
2018-07-20T04:23:17.101Z,95380.9
2018-07-20T04:24:19.286Z,95379.9
2018-07-20T04:25:21.741Z,95383.8
2018-07-20T04:26:23.374Z,95381.1
2018-07-20T04:27:25.826Z,95378.3
2018-07-20T04:28:28.007Z,95383.8
2018-07-20T04:29:30.463Z,95383.5
2018-07-20T04:30:32.908Z,95380.9
2018-07-20T04:31:34.836Z,95381.2
2018-07-20T04:32:37.019Z,95382.9
2018-07-20T04:33:39.212Z,95382.3
2018-07-20T04:34:40.854Z,95378.4
2018-07-20T04:35:43.020Z,95381.6
2018-07-20T04:36:44.921Z,95384.3
2018-07-20T04:37:47.381Z,95379.5
2018-07-20T04:38:49.827Z,95382.5
2018-07-20T04:39:52.276Z,95380.8
2018-07-20T04:40:54.718Z,95380.3
2018-07-20T04:41:56.900Z,95381
2018-07-20T04:42:58.507Z,95380.3
2018-07-20T04:44:00.536Z,95380.5
2018-07-20T04:45:02.461Z,95384.3
2018-07-20T04:46:04.930Z,95381.1
2018-07-20T04:47:07.094Z,95382.7
2018-07-20T04:48:09.537Z,95385.1
2018-07-20T04:49:11.978Z,95381.6
2018-07-20T04:50:14.440Z,95386.2
2018-07-20T04:51:16.887Z,95382.6
2018-07-20T04:52:19.336Z,95386.1
2018-07-20T04:53:21.505Z,95387.7
2018-07-20T04:54:23.685Z,95385.3
2018-07-20T04:55:25.845Z,95383.8
2018-07-20T04:56:28.291Z,95381.3
2018-07-20T04:57:30.737Z,95380.1
2018-07-20T04:58:33.177Z,95380
2018-07-20T04:59:35.369Z,95375.5
2018-07-20T05:00:37.551Z,95376.2
2018-07-20T05:01:40.007Z,95379
2018-07-20T05:02:42.177Z,95375.7
2018-07-20T05:03:44.821Z,95378
2018-07-20T05:04:47.057Z,95375.2
2018-07-20T05:05:49.134Z,95377.5
2018-07-20T05:06:51.629Z,95374.6
2018-07-20T05:07:53.256Z,95376.4
2018-07-20T05:08:55.429Z,95373.4
2018-07-20T05:09:57.597Z,95371.4
2018-07-20T05:10:59.507Z,95377.6
2018-07-20T05:12:01.959Z,95376.2
2018-07-20T05:13:04.413Z,95375.7
2018-07-20T05:14:06.595Z,95372.9
2018-07-20T05:15:09.053Z,95372.5
2018-07-20T05:16:10.963Z,95373.8
2018-07-20T05:17:13.134Z,95371.5
2018-07-20T05:18:15.096Z,95374.1
2018-07-20T05:19:17.547Z,95371.5
2018-07-20T05:20:19.696Z,95369.4
2018-07-20T05:21:22.148Z,95369
2018-07-20T05:22:24.594Z,95369.7
2018-07-20T05:23:27.035Z,95372
2018-07-20T05:24:28.387Z,95366.9
2018-07-20T05:25:30.277Z,95364.9
2018-07-20T05:26:32.453Z,95366.3
2018-07-20T05:27:34.905Z,95365.5
2018-07-20T05:28:36.501Z,95366.2
2018-07-20T05:29:38.955Z,95362.9
2018-07-20T05:30:40.842Z,95366
2018-07-20T05:31:42.764Z,95364.4
2018-07-20T05:32:45.471Z,95366.8
2018-07-20T05:33:47.907Z,95365.5
2018-07-20T05:34:50.360Z,95361.5
2018-07-20T05:35:52.540Z,95366.2
2018-07-20T05:36:55.003Z,95361.9
2018-07-20T05:37:57.436Z,95364.8
2018-07-20T05:38:59.889Z,95363.9
2018-07-20T05:40:02.326Z,95367.2
2018-07-20T05:41:04.796Z,95361.9
2018-07-20T05:42:06.967Z,95365.3
2018-07-20T05:43:09.120Z,95362.2
2018-07-20T05:44:11.049Z,95362.9
2018-07-20T05:45:12.918Z,95361.4
2018-07-20T05:46:14.812Z,95363.5
2018-07-20T05:47:16.452Z,95362.8
2018-07-20T05:48:18.944Z,95361.1
2018-07-20T05:49:21.127Z,95363.6
2018-07-20T05:50:23.561Z,95361
2018-07-20T05:51:25.714Z,95362.5
2018-07-20T05:52:27.328Z,95358.5
2018-07-20T05:53:30.118Z,95359.8
2018-07-20T05:54:32.331Z,95363.8
2018-07-20T05:55:34.796Z,95361.8
2018-07-20T05:56:37.251Z,95358.3
2018-07-20T05:57:39.699Z,95357
2018-07-20T05:58:42.157Z,95356.8
2018-07-20T05:59:44.612Z,95360.9
2018-07-20T06:00:46.782Z,95360.6
2018-07-20T06:01:49.240Z,95364.9
2018-07-20T06:02:51.694Z,95366.9
2018-07-20T06:03:53.612Z,95364.4
2018-07-20T06:04:56.072Z,95364.5
2018-07-20T06:05:58.223Z,95361.1
2018-07-20T06:07:00.678Z,95362.2
2018-07-20T06:08:02.853Z,95362.4
2018-07-20T06:09:05.031Z,95362.1
2018-07-20T06:10:07.476Z,95359.9
2018-07-20T06:11:09.662Z,95363.1
2018-07-20T06:12:12.117Z,95365.3
2018-07-20T06:13:14.567Z,95358.2
2018-07-20T06:14:17.478Z,95364.5
2018-07-20T06:15:20.148Z,95365.2
2018-07-20T06:16:22.597Z,95364.9
2018-07-20T06:17:25.038Z,95366.1
2018-07-20T06:18:27.476Z,95366.3
2018-07-20T06:19:29.921Z,95364.5
2018-07-20T06:20:31.795Z,95363.5
2018-07-20T06:21:33.971Z,95365.7
2018-07-20T06:22:36.151Z,95365.1
2018-07-20T06:23:38.569Z,95363.7
2018-07-20T06:24:40.718Z,95363.6
2018-07-20T06:25:43.166Z,95361.5
2018-07-20T06:26:45.607Z,95362.2
2018-07-20T06:27:47.517Z,95360.2
2018-07-20T06:28:49.956Z,95359.1
2018-07-20T06:29:52.108Z,95357.1
2018-07-20T06:30:54.014Z,95356.1
2018-07-20T06:31:55.924Z,95362.4
2018-07-20T06:32:58.384Z,95360.3
2018-07-20T06:34:00.832Z,95360.7
2018-07-20T06:35:03.268Z,95360.6
2018-07-20T06:36:05.168Z,95362.2
2018-07-20T06:37:06.518Z,95361.4
2018-07-20T06:38:08.433Z,95362.9
2018-07-20T06:39:10.883Z,95366.5
2018-07-20T06:40:13.068Z,95366.8
2018-07-20T06:41:15.521Z,95360.7
2018-07-20T06:42:17.711Z,95366.6
2018-07-20T06:43:20.157Z,95363.5
2018-07-20T06:44:22.354Z,95362.9
2018-07-20T06:45:24.810Z,95368.2
2018-07-20T06:46:26.996Z,95359.6
2018-07-20T06:47:29.148Z,95362.7
2018-07-20T06:48:31.595Z,95362.2
2018-07-20T06:49:34.043Z,95367.7
2018-07-20T06:50:36.233Z,95368.7
2018-07-20T06:51:38.677Z,95372.6
2018-07-20T06:52:40.849Z,95370.5
2018-07-20T06:53:43.013Z,95369.2
2018-07-20T06:54:45.191Z,95367.5
2018-07-20T06:55:47.445Z,95368.9
2018-07-20T06:56:49.945Z,95367.2
2018-07-20T06:57:51.831Z,95370.7
2018-07-20T06:58:54.277Z,95364.6
2018-07-20T06:59:56.197Z,95368.8
2018-07-20T07:00:58.390Z,95370.5
2018-07-20T07:02:00.822Z,95369.2
2018-07-20T07:03:03.016Z,95369.4
2018-07-20T07:04:05.192Z,95369.4
2018-07-20T07:05:07.358Z,95372.2
2018-07-20T07:06:09.513Z,95375.5
2018-07-20T07:07:11.668Z,95374.4
2018-07-20T07:08:13.585Z,95370.8
2018-07-20T07:09:16.040Z,95374.5
2018-07-20T07:10:18.494Z,95370.4
2018-07-20T07:11:20.959Z,95373.9
2018-07-20T07:12:23.138Z,95371.8
2018-07-20T07:13:25.316Z,95368.8
2018-07-20T07:14:27.468Z,95372.6
2018-07-20T07:15:29.931Z,95374.3
2018-07-20T07:16:31.844Z,95373.8
2018-07-20T07:17:34.018Z,95375.8
2018-07-20T07:18:35.942Z,95374.3
2018-07-20T07:19:38.115Z,95372.5
2018-07-20T07:20:40.568Z,95371.7
2018-07-20T07:21:43.021Z,95375.8
2018-07-20T07:22:44.951Z,95370.7
2018-07-20T07:23:47.797Z,95370.9
2018-07-20T07:24:50.239Z,95369.5
2018-07-20T07:25:52.828Z,95371.2
2018-07-20T07:26:55.056Z,95373.5
2018-07-20T07:27:56.965Z,95369.6
2018-07-20T07:28:59.154Z,95372.2
2018-07-20T07:30:01.589Z,95368.8
2018-07-20T07:31:04.054Z,95371.1
2018-07-20T07:32:06.499Z,95370.4
2018-07-20T07:33:08.664Z,95370.9
2018-07-20T07:34:11.109Z,95368.6
2018-07-20T07:35:13.283Z,95369.8
2018-07-20T07:36:15.736Z,95368.4
2018-07-20T07:37:18.184Z,95367.8
2018-07-20T07:38:20.642Z,95367.3
2018-07-20T07:39:23.100Z,95367.3
2018-07-20T07:40:25.251Z,95368.9
2018-07-20T07:41:27.436Z,95367.4
2018-07-20T07:42:29.061Z,95368.9
2018-07-20T07:43:31.237Z,95368.2
2018-07-20T07:44:33.704Z,95368.1
2018-07-20T07:45:36.145Z,95366.5
2018-07-20T07:46:38.368Z,95368.2
2018-07-20T07:47:40.251Z,95365.5
2018-07-20T07:48:42.704Z,95364.3
2018-07-20T07:49:45.156Z,95362.9
2018-07-20T07:50:47.343Z,95364
2018-07-20T07:51:49.256Z,95365.7
2018-07-20T07:52:51.404Z,95359.9
2018-07-20T07:53:53.001Z,95359.4
2018-07-20T07:54:55.496Z,95360.4
2018-07-20T07:55:57.746Z,95361.2
2018-07-20T07:56:59.907Z,95362
2018-07-20T07:58:02.096Z,95362.5
2018-07-20T07:59:04.273Z,95361.3
2018-07-20T08:00:06.450Z,95356.2
2018-07-20T08:01:08.590Z,95358.4
2018-07-20T08:02:11.037Z,95356.7
2018-07-20T08:03:13.973Z,95357.2
2018-07-20T08:04:16.637Z,95357.2
2018-07-20T08:05:19.091Z,95355.4
2018-07-20T08:06:21.288Z,95354.9
2018-07-20T08:07:23.451Z,95354.6
2018-07-20T08:08:25.621Z,95356.9
2018-07-20T08:09:27.821Z,95356.5
2018-07-20T08:10:30.003Z,95358.7
2018-07-20T08:11:32.462Z,95354.4
2018-07-20T08:12:34.906Z,95351.3
2018-07-20T08:13:37.359Z,95349.6
2018-07-20T08:14:39.525Z,95350.1
2018-07-20T08:15:41.821Z,95347.7
2018-07-20T08:16:44.285Z,95348.9
2018-07-20T08:17:46.726Z,95349.3
2018-07-20T08:18:49.167Z,95354
2018-07-20T08:19:51.066Z,95349
2018-07-20T08:20:53.238Z,95350.1
2018-07-20T08:21:55.388Z,95348.5
2018-07-20T08:22:57.840Z,95346.2
2018-07-20T08:24:00.532Z,95344.7
2018-07-20T08:25:02.693Z,95347.9
2018-07-20T08:26:04.866Z,95350.1
2018-07-20T08:27:07.320Z,95354.8
2018-07-20T08:28:09.491Z,95346.8
2018-07-20T08:29:11.942Z,95343.6
2018-07-20T08:30:13.848Z,95346.6
2018-07-20T08:31:16.034Z,95340.4
2018-07-20T08:32:18.468Z,95345.3
2018-07-20T08:33:20.099Z,95337.4
2018-07-20T08:34:22.304Z,95344.6
2018-07-20T08:35:24.504Z,95345.5
2018-07-20T08:36:26.947Z,95346.4
2018-07-20T08:37:29.125Z,95344
2018-07-20T08:38:31.567Z,95348.9
2018-07-20T08:39:34.035Z,95341.9
2018-07-20T08:40:36.178Z,95346.1
2018-07-20T08:41:38.356Z,95343
2018-07-20T08:42:40.282Z,95348.8
2018-07-20T08:43:42.728Z,95346.5
2018-07-20T08:44:45.191Z,95346.6
2018-07-20T08:45:47.647Z,95347.6
2018-07-20T08:46:49.860Z,95350.5
2018-07-20T08:47:52.082Z,95346.6
2018-07-20T08:48:54.521Z,95349.7
2018-07-20T08:49:56.708Z,95344.8
2018-07-20T08:50:59.159Z,95343.9
2018-07-20T08:52:01.326Z,95341.6
2018-07-20T08:53:03.502Z,95345.8
2018-07-20T08:54:05.896Z,95344.8
2018-07-20T08:55:08.465Z,95346
2018-07-20T08:56:10.955Z,95349.2
2018-07-20T08:57:13.141Z,95348.3
2018-07-20T08:58:15.041Z,95350
2018-07-20T08:59:17.480Z,95351.5
2018-07-20T09:00:19.630Z,95349.6
2018-07-20T09:01:22.074Z,95348.7
2018-07-20T09:02:23.951Z,95348.6
2018-07-20T09:03:26.817Z,95355.5
2018-07-20T09:04:29.126Z,95347.1
2018-07-20T09:05:31.312Z,95345.3
2018-07-20T09:06:33.496Z,95342.7
2018-07-20T09:07:35.660Z,95347.6
2018-07-20T09:08:38.119Z,95344.9
2018-07-20T09:09:40.016Z,95348
2018-07-20T09:10:42.189Z,95349.4
2018-07-20T09:11:44.368Z,95343.3
2018-07-20T09:12:46.546Z,95344.1
2018-07-20T09:13:49.189Z,95342.5
2018-07-20T09:14:51.809Z,95348.8
2018-07-20T09:15:54.282Z,95339.5
2018-07-20T09:16:56.456Z,95341.5
2018-07-20T09:17:58.646Z,95344.2
2018-07-20T09:19:00.833Z,95344.3
2018-07-20T09:20:03.016Z,95344.7
2018-07-20T09:21:05.609Z,95343.9
2018-07-20T09:22:07.951Z,95341.3
2018-07-20T09:23:10.403Z,95340.1
2018-07-20T09:24:12.306Z,95342.6
2018-07-20T09:25:14.216Z,95344.7
2018-07-20T09:26:16.687Z,95342.5
2018-07-20T09:27:18.567Z,95341.4
2018-07-20T09:28:21.308Z,95343.6
2018-07-20T09:29:23.601Z,95344.6
2018-07-20T09:30:25.744Z,95340.8
2018-07-20T09:31:27.629Z,95338.3
2018-07-20T09:32:30.106Z,95338
2018-07-20T09:33:32.289Z,95338.1
2018-07-20T09:34:34.733Z,95334.2
2018-07-20T09:35:37.198Z,95339.2
2018-07-20T09:36:39.393Z,95334.8
2018-07-20T09:37:41.837Z,95338.4
2018-07-20T09:38:44.295Z,95339
2018-07-20T09:39:46.731Z,95338
2018-07-20T09:40:49.179Z,95337.2
2018-07-20T09:41:51.644Z,95341.4
2018-07-20T09:42:53.891Z,95339.4
2018-07-20T09:43:56.526Z,95346.8
2018-07-20T09:44:58.972Z,95346.4
2018-07-20T09:46:01.151Z,95343.1
2018-07-20T09:47:03.611Z,95346.1
2018-07-20T09:48:05.789Z,95344.5
2018-07-20T09:49:08.245Z,95345.5
2018-07-20T09:50:10.422Z,95343.8
2018-07-20T09:51:12.596Z,95349.8
2018-07-20T09:52:15.037Z,95343.1
2018-07-20T09:53:17.487Z,95345.3
2018-07-20T09:54:19.655Z,95348.7
2018-07-20T09:55:21.828Z,95350.4
2018-07-20T09:56:24.017Z,95343.3
2018-07-20T09:57:26.477Z,95341.2
2018-07-20T09:58:28.819Z,95341.9
2018-07-20T09:59:31.831Z,95340.2
2018-07-20T10:00:34.165Z,95341.7
2018-07-20T10:01:36.616Z,95339.5
2018-07-20T10:02:38.798Z,95339.7
2018-07-20T10:03:41.254Z,95341.5
2018-07-20T10:04:43.427Z,95343.3
2018-07-20T10:05:45.346Z,95343.1
2018-07-20T10:06:47.251Z,95342.5
2018-07-20T10:07:49.710Z,95338.2
2018-07-20T10:08:52.177Z,95339.5
2018-07-20T10:09:54.347Z,95336.4
2018-07-20T10:10:56.810Z,95336.1
2018-07-20T10:11:59.007Z,95336
2018-07-20T10:13:01.461Z,95334.3
2018-07-20T10:14:03.931Z,95335.2
2018-07-20T10:15:06.083Z,95335.2
2018-07-20T10:16:08.247Z,95334.4
2018-07-20T10:17:10.686Z,95329.3
2018-07-20T10:18:12.867Z,95334.9
2018-07-20T10:19:15.066Z,95329.9
2018-07-20T10:20:17.525Z,95330.7
2018-07-20T10:21:19.977Z,95334.4
2018-07-20T10:22:22.122Z,95332
2018-07-20T10:23:24.564Z,95328.4
2018-07-20T10:24:26.477Z,95328.2
2018-07-20T10:25:28.699Z,95326.8
2018-07-20T10:26:31.157Z,95332.1
2018-07-20T10:27:33.330Z,95328.5
2018-07-20T10:28:35.773Z,95326.8
2018-07-20T10:29:38.228Z,95327.9
2018-07-20T10:30:40.926Z,95323.2
2018-07-20T10:31:43.542Z,95323.5
2018-07-20T10:32:45.980Z,95322.3
2018-07-20T10:33:47.891Z,95321.9
2018-07-20T10:34:50.351Z,95325
2018-07-20T10:35:52.528Z,95321.3
2018-07-20T10:36:54.979Z,95321.7
2018-07-20T10:37:56.590Z,95319.2
2018-07-20T10:38:59.042Z,95319.5
2018-07-20T10:40:01.487Z,95321
2018-07-20T10:41:03.685Z,95319.7
2018-07-20T10:42:05.313Z,95313.6
2018-07-20T10:43:07.851Z,95315.6
2018-07-20T10:44:09.475Z,95316.1
2018-07-20T10:45:11.931Z,95315.4
2018-07-20T10:46:13.826Z,95311.1
2018-07-20T10:47:16.271Z,95309
2018-07-20T10:48:18.719Z,95309.9
2018-07-20T10:49:21.167Z,95312.4
2018-07-20T10:50:23.615Z,95310.1
2018-07-20T10:51:25.798Z,95308.7
2018-07-20T10:52:28.237Z,95308.4
2018-07-20T10:53:30.690Z,95305.7
2018-07-20T10:54:33.126Z,95303.1
2018-07-20T10:55:35.306Z,95299.9
2018-07-20T10:56:37.755Z,95303.6
2018-07-20T10:57:40.210Z,95305.2
2018-07-20T10:58:42.656Z,95296.5
2018-07-20T10:59:45.117Z,95295.8
2018-07-20T11:00:47.320Z,95296.4
2018-07-20T11:01:49.231Z,95293.7
2018-07-20T11:02:51.691Z,95288.6
2018-07-20T11:03:53.871Z,95292.2
2018-07-20T11:04:56.326Z,95283.7
2018-07-20T11:05:58.781Z,95277.2
2018-07-20T11:07:01.232Z,95283
2018-07-20T11:08:03.911Z,95280.6
2018-07-20T11:09:06.106Z,95280.7
2018-07-20T11:10:08.549Z,95279.3
2018-07-20T11:11:10.997Z,95273.7
2018-07-20T11:12:13.188Z,95275.3
2018-07-20T11:13:15.330Z,95270.5
2018-07-20T11:14:17.249Z,95270.4
2018-07-20T11:15:19.438Z,95270.2
2018-07-20T11:16:21.883Z,95263.1
2018-07-20T11:17:24.339Z,95268.7
2018-07-20T11:18:26.274Z,95263.6
2018-07-20T11:19:28.733Z,95269.8
2018-07-20T11:20:30.896Z,95269.7
2018-07-20T11:21:33.106Z,95266.7
2018-07-20T11:22:35.577Z,95259.7
2018-07-20T11:23:38.046Z,95260.6
2018-07-20T11:24:40.526Z,95253.4
2018-07-20T11:25:42.704Z,95256.8
2018-07-20T11:26:45.142Z,95254.2
2018-07-20T11:27:47.597Z,95256.8
2018-07-20T11:28:49.796Z,95255.5
2018-07-20T11:29:51.987Z,95254.9
2018-07-20T11:30:54.460Z,95252
2018-07-20T11:31:56.920Z,95256.7
2018-07-20T11:32:58.812Z,95256.1
2018-07-20T11:34:00.759Z,95246.5
2018-07-20T11:35:03.214Z,95245.8
2018-07-20T11:36:05.129Z,95242.3
2018-07-20T11:37:07.323Z,95242.7
2018-07-20T11:38:09.757Z,95245.3
2018-07-20T11:39:11.960Z,95250.1
2018-07-20T11:40:14.117Z,95248.6
2018-07-20T11:41:16.304Z,95248.5
2018-07-20T11:42:18.756Z,95241.5
2018-07-20T11:43:20.631Z,95245.1
2018-07-20T11:44:23.083Z,95240.2
2018-07-20T11:45:24.963Z,95242.8
2018-07-20T11:46:27.425Z,95239.2
2018-07-20T11:47:29.606Z,95244.2
2018-07-20T11:48:32.061Z,95239.9
2018-07-20T11:49:34.517Z,95239.2
2018-07-20T11:50:36.683Z,95237.1
2018-07-20T11:51:38.313Z,95235.3
2018-07-20T11:52:40.224Z,95236.1
2018-07-20T11:53:42.427Z,95236
2018-07-20T11:54:44.325Z,95235.3
2018-07-20T11:55:46.520Z,95234.4
2018-07-20T11:56:48.689Z,95234.9
2018-07-20T11:57:50.881Z,95233.2
2018-07-20T11:58:53.339Z,95238.2
2018-07-20T11:59:55.495Z,95234.3
2018-07-20T12:00:57.948Z,95232.4
2018-07-20T12:02:00.046Z,95233.1
2018-07-20T12:03:02.648Z,95231.3
2018-07-20T12:04:04.862Z,95231.8
2018-07-20T12:05:07.312Z,95238.7
2018-07-20T12:06:09.766Z,95236.6
2018-07-20T12:07:12.285Z,95230.6
2018-07-20T12:08:14.766Z,95229.3
2018-07-20T12:09:16.967Z,95229.4
2018-07-20T12:10:19.117Z,95229
2018-07-20T12:11:21.311Z,95229.4
2018-07-20T12:12:23.757Z,95231.7
2018-07-20T12:13:25.955Z,95226.4
2018-07-20T12:14:28.135Z,95225.6
2018-07-20T12:15:30.334Z,95222.1
2018-07-20T12:16:32.511Z,95222.5
2018-07-20T12:17:33.594Z,95223.4
2018-07-20T12:18:35.750Z,95221.1
2018-07-20T12:19:37.926Z,95226.4
2018-07-20T12:20:40.379Z,95225.4
2018-07-20T12:21:42.557Z,95229.2
2018-07-20T12:22:45.008Z,95226.8
2018-07-20T12:23:46.909Z,95230
2018-07-20T12:24:49.377Z,95222.6
2018-07-20T12:25:51.287Z,95229.7
2018-07-20T12:26:53.731Z,95221
2018-07-20T12:27:56.177Z,95223.8
2018-07-20T12:28:58.641Z,95226.9
2018-07-20T12:30:00.817Z,95222.8
2018-07-20T12:31:03.014Z,95224.7
2018-07-20T12:32:04.915Z,95223.5
2018-07-20T12:33:07.369Z,95220.3
2018-07-20T12:34:09.960Z,95221.3
2018-07-20T12:35:12.162Z,95219.5
2018-07-20T12:36:14.306Z,95215.7
2018-07-20T12:37:16.508Z,95216.4